Terminal Aerodrome Forecast
Issued by NWS

Home | Current Version | Previous Version | Text Only | Print | Product List | Glossary On
Versions: 1 2 3 4 5 6 7 8 9 10 11 12 13 14 15 16 17 18
101
FTUS46 KPDT 082320
TAFYKM
TAF
KYKM 082320Z 0900/0924 04011KT 3SM -SN BR SCT010 OVC025
     FM090100 35007KT 3/4SM -SN BR SCT005 OVC010
     FM090700 32006KT 5SM -SHSNPL OVC015
     FM091500 31005KT 5SM -SHSN SCT010 BKN025=

USA.gov is the U.S. government's official web portal to all federal, state and local government web resources and services.